Fuji Maru — JD2030 — position and weather

sailwx.info

Track history (hours):
 
Tides and Currents Weather Stations Pressure Air Temp Water Temp Dewpoint Dewpoint Depression Visibility Wind Speed Wind Dir Waves Ship Positions

Fuji Maru

Last reported at 2017-Feb-19 11:10 UTC. Time now 2017-Feb-19 11:51 UTC.
Position N 35°39' E 139°46'.

Length 38 m; draft 4.4 m.

Type: Tug. MMSI: 431001102.

Date/timePositionNaut miles runAvg speedWind from/ knotsBaromVisibWave heightAir tempDewpointWater temp
2017-Feb-19 11:10N 35°39' E 139°46'0 0.0
2017-Feb-19 10:23N 35°39' E 139°46'0 0.0
2017-Feb-19 09:34N 35°39' E 139°46'0 0.0
2017-Feb-19 08:32N 35°39' E 139°46'0 0.0
2017-Feb-19 07:33N 35°39' E 139°46'0 0.0
2017-Feb-19 06:27N 35°39' E 139°46'0 0.0
2017-Feb-19 03:29N 35°39' E 139°46'0 0.0
2017-Feb-18 23:18N 35°39' E 139°46'0 0.0
2017-Feb-18 22:22N 35°39' E 139°46'0 0.0
2017-Feb-18 20:31N 35°39' E 139°46'0 0.0
2017-Feb-18 19:29N 35°39' E 139°46'2 2.6
2017-Feb-18 18:34N 35°36' E 139°46'0 0.3
2017-Feb-18 17:33N 35°36' E 139°46'3 3.0
2017-Feb-18 16:33N 35°34' E 139°49'2 2.5
2017-Feb-18 15:33N 35°36' E 139°47'0 0.0
2017-Feb-18 14:34N 35°36' E 139°47'0 0.0
2017-Feb-18 13:33N 35°36' E 139°47'0 0.0
2017-Feb-18 12:33N 35°36' E 139°47'1 0.8
2017-Feb-18 11:33N 35°36' E 139°47'1 1.3
2017-Feb-18 10:33N 35°35' E 139°48'4 4.1
2017-Feb-18 09:33N 35°39' E 139°46'0 0.0
2017-Feb-18 08:33N 35°39' E 139°46'0 0.0
2017-Feb-18 07:31N 35°39' E 139°46'0 0.0
2017-Feb-18 06:31N 35°39' E 139°46'0 0.0
2017-Feb-18 05:30N 35°39' E 139°46'0 0.0
2017-Feb-18 04:29N 35°39' E 139°46'0 0.0
2017-Feb-18 03:32N 35°39' E 139°46'0 0.0
2017-Feb-18 02:33N 35°39' E 139°46'0 0.0
2017-Feb-18 01:32N 35°39' E 139°46'0 0.0
2017-Feb-18 00:33N 35°39' E 139°46'0 0.0
2017-Feb-17 23:33N 35°39' E 139°46'3 2.9
2017-Feb-17 22:34N 35°36' E 139°46'1 1.1
2017-Feb-17 21:33N 35°35' E 139°47'4 1.8
2017-Feb-17 19:29N 35°39' E 139°46'0 0.0
2017-Feb-17 18:28N 35°39' E 139°46'0 0.0
2017-Feb-17 17:10N 35°39' E 139°46'0 0.0
2017-Feb-17 16:28N 35°39' E 139°46'0 0.0
2017-Feb-17 15:26N 35°39' E 139°46'0 0.0
2017-Feb-17 14:33N 35°39' E 139°46'0 0.0
2017-Feb-17 13:24N 35°39' E 139°46'0 0.0
2017-Feb-17 12:32N 35°39' E 139°46'0 0.0
2017-Feb-17 11:33N 35°39' E 139°46'0 0.0
2017-Feb-17 10:32N 35°39' E 139°46'0 0.0
2017-Feb-17 09:33N 35°39' E 139°46'3 3.5
2017-Feb-17 08:33N 35°37' E 139°49'3 3.4
2017-Feb-17 07:34N 35°39' E 139°46'0 0.0
2017-Feb-17 06:33N 35°39' E 139°46'0 0.0
2017-Feb-17 05:33N 35°39' E 139°46'0 0.0
2017-Feb-17 04:33N 35°39' E 139°46'0 0.0
2017-Feb-17 03:33N 35°39' E 139°46'0 0.0
2017-Feb-17 02:33N 35°39' E 139°46'0 0.0
2017-Feb-17 01:33N 35°39' E 139°46'0 0.0
2017-Feb-17 00:33N 35°39' E 139°46'0 0.0
2017-Feb-16 23:33N 35°39' E 139°46'2 2.2
2017-Feb-16 22:33N 35°37' E 139°46'4 3.6
2017-Feb-16 21:34N 35°34' E 139°49'3 3.2
2017-Feb-16 20:33N 35°37' E 139°47'2 2.4
2017-Feb-16 19:33N 35°39' E 139°46'0 0.0
2017-Feb-16 18:33N 35°39' E 139°46'0 0.0
2017-Feb-16 17:33N 35°39' E 139°46'0 0.0
2017-Feb-16 16:33N 35°39' E 139°46'0 0.0
2017-Feb-16 15:33N 35°39' E 139°46'0 0.0
2017-Feb-16 14:33N 35°39' E 139°46'0 0.0
2017-Feb-16 13:33N 35°39' E 139°46'0 0.0
2017-Feb-16 12:33N 35°39' E 139°46'0 0.0
2017-Feb-16 11:33N 35°39' E 139°46'0 0.0
2017-Feb-16 10:33N 35°39' E 139°46'0 0.0
2017-Feb-16 09:33N 35°39' E 139°46'0 0.0
2017-Feb-16 08:33N 35°39' E 139°46'0 0.0
2017-Feb-16 07:34N 35°39' E 139°46'0 0.0
2017-Feb-16 06:33N 35°39' E 139°46'0 0.0
2017-Feb-16 05:33N 35°39' E 139°46'0 0.0
2017-Feb-16 04:33N 35°39' E 139°46'0 0.0
2017-Feb-16 03:33N 35°39' E 139°46'2 2.3
2017-Feb-16 02:33N 35°37' E 139°47'2 2.3
2017-Feb-16 01:33N 35°39' E 139°46'0 0.0
2017-Feb-16 00:25N 35°39' E 139°46'0 0.0
2017-Feb-15 23:27N 35°39' E 139°46'0 0.0
2017-Feb-15 22:33N 35°39' E 139°46'0 0.0
2017-Feb-15 21:30N 35°39' E 139°46'0 0.0
2017-Feb-15 20:32N 35°39' E 139°46'0 0.0
2017-Feb-15 19:31N 35°39' E 139°46'0 0.0
2017-Feb-15 18:33N 35°39' E 139°46'0 0.0
2017-Feb-15 17:33N 35°39' E 139°46'0 0.0
2017-Feb-15 16:33N 35°39' E 139°46'0 0.0
2017-Feb-15 15:33N 35°39' E 139°46'0 0.0
2017-Feb-15 14:33N 35°39' E 139°46'0 0.0
2017-Feb-15 13:33N 35°39' E 139°46'0 0.0
2017-Feb-15 12:29N 35°39' E 139°46'0 0.0
2017-Feb-15 11:32N 35°39' E 139°46'0 0.0
2017-Feb-15 10:30N 35°39' E 139°46'0 0.0
2017-Feb-15 09:30N 35°39' E 139°46'0 0.0
2017-Feb-15 08:28N 35°39' E 139°46'1 1.1
2017-Feb-15 07:33N 35°38' E 139°46'2 2.0
2017-Feb-15 06:32N 35°36' E 139°47'2 2.5
2017-Feb-15 05:33N 35°34' E 139°49'5 5.1
2017-Feb-15 04:31N 35°39' E 139°46'0 0.0
2017-Feb-15 03:32N 35°39' E 139°46'0 0.0
2017-Feb-15 02:33N 35°39' E 139°46'0 0.0
2017-Feb-15 01:33N 35°39' E 139°46'0 0.0
2017-Feb-15 00:33N 35°39' E 139°46'0 0.0
2017-Feb-14 23:33N 35°39' E 139°46'0 0.0
2017-Feb-14 22:33N 35°39' E 139°46'0 0.0
2017-Feb-14 21:33N 35°39' E 139°46'0 0.0
2017-Feb-14 20:33N 35°39' E 139°46'0 0.0
2017-Feb-14 19:32N 35°39' E 139°46'0 0.0
2017-Feb-14 18:34N 35°39' E 139°46'0 0.0
2017-Feb-14 17:33N 35°39' E 139°46'0 0.0
2017-Feb-14 16:33N 35°39' E 139°46'0 0.0
2017-Feb-14 15:33N 35°39' E 139°46'0 0.0
2017-Feb-14 14:33N 35°39' E 139°46'0 0.0
2017-Feb-14 13:33N 35°39' E 139°46'0 0.0
2017-Feb-14 12:33N 35°39' E 139°46'0 0.0
2017-Feb-14 11:27N 35°39' E 139°46'0 0.0
2017-Feb-14 10:33N 35°39' E 139°46'0 0.0
2017-Feb-14 09:33N 35°39' E 139°46'0 0.1
2017-Feb-14 08:33N 35°39' E 139°46'1 1.1
2017-Feb-14 07:34N 35°38' E 139°46'1 1.1
2017-Feb-14 06:33N 35°39' E 139°46'0 0.0
2017-Feb-14 05:33N 35°39' E 139°46'0 0.0
2017-Feb-14 04:33N 35°39' E 139°46'0 0.0
2017-Feb-14 03:21N 35°39' E 139°46'0 0.0
2017-Feb-14 02:33N 35°39' E 139°46'0 0.0
2017-Feb-14 01:33N 35°39' E 139°46'0 0.0
2017-Feb-14 00:33N 35°39' E 139°46'0 0.0
2017-Feb-13 23:33N 35°39' E 139°46'1 1.4
2017-Feb-13 22:33N 35°37' E 139°46'4 3.6
2017-Feb-13 21:32N 35°34' E 139°48'2 2.0
2017-Feb-13 20:33N 35°36' E 139°47'1 1.3
2017-Feb-13 19:33N 35°37' E 139°46'2 0.9
2017-Feb-13 17:23N 35°39' E 139°46'0 0.0
2017-Feb-13 16:33N 35°39' E 139°46'0 0.0
2017-Feb-13 15:34N 35°39' E 139°46'0 0.0
2017-Feb-13 14:33N 35°39' E 139°46'0 0.0
2017-Feb-13 13:32N 35°39' E 139°46'0 0.0
2017-Feb-13 12:33N 35°39' E 139°46'0 0.0
2017-Feb-13 11:34N 35°39' E 139°46'0 0.0
2017-Feb-13 10:33N 35°39' E 139°46'0 0.0
2017-Feb-13 09:33N 35°39' E 139°46'0 0.0
2017-Feb-13 08:33N 35°39' E 139°46'0 0.0
2017-Feb-13 07:33N 35°39' E 139°46'0 0.0
2017-Feb-13 06:33N 35°39' E 139°46'0 0.0
2017-Feb-13 05:34N 35°39' E 139°46'0 0.0
2017-Feb-13 04:25N 35°39' E 139°46'0 0.0
2017-Feb-13 03:32N 35°39' E 139°46'0 0.0
2017-Feb-13 02:30N 35°39' E 139°46'0 0.0
2017-Feb-13 01:27N 35°39' E 139°46'2 1.8
2017-Feb-13 00:33N 35°37' E 139°46'2 2.1
2017-Feb-12 23:33N 35°35' E 139°47'4 1.7
2017-Feb-12 21:28N 35°39' E 139°46'0 0.0
2017-Feb-12 19:15N 35°39' E 139°46'0 0.0
2017-Feb-12 18:33N 35°39' E 139°46'0 0.0
2017-Feb-12 17:33N 35°39' E 139°46'0 0.0
2017-Feb-12 16:33N 35°39' E 139°46'0 0.0
2017-Feb-12 15:33N 35°39' E 139°46'0 0.0
2017-Feb-12 14:34N 35°39' E 139°46'0 0.0
2017-Feb-12 13:33N 35°39' E 139°46'0 0.0
2017-Feb-12 08:13N 35°39' E 139°46'0 0.0
2017-Feb-12 03:27N 35°39' E 139°46'0 0.0
2017-Feb-11 23:32N 35°39' E 139°46'0 0.0
2017-Feb-11 22:33N 35°39' E 139°46'0 0.0
2017-Feb-11 21:32N 35°39' E 139°46'0 0.0
2017-Feb-11 20:33N 35°39' E 139°46'0 0.0
2017-Feb-11 18:33N 35°39' E 139°46'0 0.0
2017-Feb-11 17:33N 35°39' E 139°46'0 0.0
2017-Feb-11 16:33N 35°39' E 139°46'0 0.0
2017-Feb-11 15:13N 35°39' E 139°46'0 0.0
2017-Feb-11 14:32N 35°39' E 139°46'0 0.0
2017-Feb-11 13:32N 35°39' E 139°46'0 0.0
2017-Feb-11 09:33N 35°39' E 139°46'0 0.0
2017-Feb-11 08:28N 35°39' E 139°46'0 0.0
2017-Feb-10 23:25N 35°39' E 139°46'0 0.0
2017-Feb-10 22:32N 35°39' E 139°46'0 0.0
2017-Feb-10 21:33N 35°39' E 139°46'0 0.0
2017-Feb-10 20:33N 35°39' E 139°46'0 0.0
2017-Feb-10 19:33N 35°39' E 139°46'0 0.0
2017-Feb-10 17:20N 35°39' E 139°46'3 3.3
2017-Feb-10 16:33N 35°36' E 139°46'3 1.9
2017-Feb-10 15:13N 35°39' E 139°46'0 0.0
2017-Feb-10 14:24N 35°39' E 139°46'0 0.0
2017-Feb-10 12:34N 35°39' E 139°46'0 0.0
2017-Feb-10 10:13N 35°39' E 139°46'0 0.0
2017-Feb-10 09:33N 35°39' E 139°46'0 0.0
2017-Feb-10 08:31N 35°39' E 139°46'2 2.4
2017-Feb-10 07:33N 35°37' E 139°46'1 1.0
2017-Feb-10 06:33N 35°36' E 139°47'3 3.1
2017-Feb-10 05:34N 35°39' E 139°46'0 0.0
2017-Feb-10 04:33N 35°39' E 139°46'0 0.0
2017-Feb-10 03:33N 35°39' E 139°46'0 0.0
2017-Feb-10 02:33N 35°39' E 139°46'0 0.0
2017-Feb-10 01:33N 35°39' E 139°46'0 0.0
2017-Feb-10 00:33N 35°39' E 139°46'0 0.0
2017-Feb-09 23:34N 35°39' E 139°46'0 0.0
2017-Feb-09 22:34N 35°39' E 139°46'0 0.0
2017-Feb-09 21:33N 35°39' E 139°46'0 0.0
2017-Feb-09 20:33N 35°39' E 139°46'0 0.0
2017-Feb-09 19:33N 35°39' E 139°46'0 0.0
2017-Feb-09 18:33N 35°39' E 139°46'0 0.0
2017-Feb-09 17:33N 35°39' E 139°46'0 0.0
2017-Feb-09 16:33N 35°39' E 139°46'0 0.0
2017-Feb-09 15:33N 35°39' E 139°46'0 0.0
2017-Feb-09 14:33N 35°39' E 139°46'0 0.0
2017-Feb-09 13:33N 35°39' E 139°46'0 0.0
2017-Feb-09 12:33N 35°39' E 139°46'0 0.0
2017-Feb-09 11:33N 35°39' E 139°46'  
Track history (hours):
 
Tides and Currents Weather Stations Pressure Air Temp Water Temp Dewpoint Dewpoint Depression Visibility Wind Speed Wind Dir Waves Ship Positions

Fuji Maru

Last reported at 2017-Feb-19 11:10 UTC. Time now 2017-Feb-19 11:51 UTC.
Position N 35°39' E 139°46'.

Length 38 m; draft 4.4 m.

Type: Tug. MMSI: 431001102.

Date/timePositionNaut miles runAvg speedWind from/ knotsBaromVisibWave heightAir tempDewpointWater temp
2017-Feb-19 11:10N 35°39' E 139°46'0 0.0
2017-Feb-19 10:23N 35°39' E 139°46'0 0.0
2017-Feb-19 09:34N 35°39' E 139°46'0 0.0
2017-Feb-19 08:32N 35°39' E 139°46'0 0.0
2017-Feb-19 07:33N 35°39' E 139°46'0 0.0
2017-Feb-19 06:27N 35°39' E 139°46'0 0.0
2017-Feb-19 03:29N 35°39' E 139°46'0 0.0
2017-Feb-18 23:18N 35°39' E 139°46'0 0.0
2017-Feb-18 22:22N 35°39' E 139°46'0 0.0
2017-Feb-18 20:31N 35°39' E 139°46'0 0.0
2017-Feb-18 19:29N 35°39' E 139°46'2 2.6
2017-Feb-18 18:34N 35°36' E 139°46'0 0.3
2017-Feb-18 17:33N 35°36' E 139°46'3 3.0
2017-Feb-18 16:33N 35°34' E 139°49'2 2.5
2017-Feb-18 15:33N 35°36' E 139°47'0 0.0
2017-Feb-18 14:34N 35°36' E 139°47'0 0.0
2017-Feb-18 13:33N 35°36' E 139°47'0 0.0
2017-Feb-18 12:33N 35°36' E 139°47'1 0.8
2017-Feb-18 11:33N 35°36' E 139°47'1 1.3
2017-Feb-18 10:33N 35°35' E 139°48'4 4.1
2017-Feb-18 09:33N 35°39' E 139°46'0 0.0
2017-Feb-18 08:33N 35°39' E 139°46'0 0.0
2017-Feb-18 07:31N 35°39' E 139°46'0 0.0
2017-Feb-18 06:31N 35°39' E 139°46'0 0.0
2017-Feb-18 05:30N 35°39' E 139°46'0 0.0
2017-Feb-18 04:29N 35°39' E 139°46'0 0.0
2017-Feb-18 03:32N 35°39' E 139°46'0 0.0
2017-Feb-18 02:33N 35°39' E 139°46'0 0.0
2017-Feb-18 01:32N 35°39' E 139°46'0 0.0
2017-Feb-18 00:33N 35°39' E 139°46'0 0.0
2017-Feb-17 23:33N 35°39' E 139°46'3 2.9
2017-Feb-17 22:34N 35°36' E 139°46'1 1.1
2017-Feb-17 21:33N 35°35' E 139°47'4 1.8
2017-Feb-17 19:29N 35°39' E 139°46'0 0.0
2017-Feb-17 18:28N 35°39' E 139°46'0 0.0
2017-Feb-17 17:10N 35°39' E 139°46'0 0.0
2017-Feb-17 16:28N 35°39' E 139°46'0 0.0
2017-Feb-17 15:26N 35°39' E 139°46'0 0.0
2017-Feb-17 14:33N 35°39' E 139°46'0 0.0
2017-Feb-17 13:24N 35°39' E 139°46'0 0.0
2017-Feb-17 12:32N 35°39' E 139°46'0 0.0
2017-Feb-17 11:33N 35°39' E 139°46'0 0.0
2017-Feb-17 10:32N 35°39' E 139°46'0 0.0
2017-Feb-17 09:33N 35°39' E 139°46'3 3.5
2017-Feb-17 08:33N 35°37' E 139°49'3 3.4
2017-Feb-17 07:34N 35°39' E 139°46'0 0.0
2017-Feb-17 06:33N 35°39' E 139°46'0 0.0
2017-Feb-17 05:33N 35°39' E 139°46'0 0.0
2017-Feb-17 04:33N 35°39' E 139°46'0 0.0
2017-Feb-17 03:33N 35°39' E 139°46'0 0.0
2017-Feb-17 02:33N 35°39' E 139°46'0 0.0
2017-Feb-17 01:33N 35°39' E 139°46'0 0.0
2017-Feb-17 00:33N 35°39' E 139°46'0 0.0
2017-Feb-16 23:33N 35°39' E 139°46'2 2.2
2017-Feb-16 22:33N 35°37' E 139°46'4 3.6
2017-Feb-16 21:34N 35°34' E 139°49'3 3.2
2017-Feb-16 20:33N 35°37' E 139°47'2 2.4
2017-Feb-16 19:33N 35°39' E 139°46'0 0.0
2017-Feb-16 18:33N 35°39' E 139°46'0 0.0
2017-Feb-16 17:33N 35°39' E 139°46'0 0.0
2017-Feb-16 16:33N 35°39' E 139°46'0 0.0
2017-Feb-16 15:33N 35°39' E 139°46'0 0.0
2017-Feb-16 14:33N 35°39' E 139°46'0 0.0
2017-Feb-16 13:33N 35°39' E 139°46'0 0.0
2017-Feb-16 12:33N 35°39' E 139°46'0 0.0
2017-Feb-16 11:33N 35°39' E 139°46'0 0.0
2017-Feb-16 10:33N 35°39' E 139°46'0 0.0
2017-Feb-16 09:33N 35°39' E 139°46'0 0.0
2017-Feb-16 08:33N 35°39' E 139°46'0 0.0
2017-Feb-16 07:34N 35°39' E 139°46'0 0.0
2017-Feb-16 06:33N 35°39' E 139°46'0 0.0
2017-Feb-16 05:33N 35°39' E 139°46'0 0.0
2017-Feb-16 04:33N 35°39' E 139°46'0 0.0
2017-Feb-16 03:33N 35°39' E 139°46'2 2.3
2017-Feb-16 02:33N 35°37' E 139°47'2 2.3
2017-Feb-16 01:33N 35°39' E 139°46'0 0.0
2017-Feb-16 00:25N 35°39' E 139°46'0 0.0
2017-Feb-15 23:27N 35°39' E 139°46'0 0.0
2017-Feb-15 22:33N 35°39' E 139°46'0 0.0
2017-Feb-15 21:30N 35°39' E 139°46'0 0.0
2017-Feb-15 20:32N 35°39' E 139°46'0 0.0
2017-Feb-15 19:31N 35°39' E 139°46'0 0.0
2017-Feb-15 18:33N 35°39' E 139°46'0 0.0
2017-Feb-15 17:33N 35°39' E 139°46'0 0.0
2017-Feb-15 16:33N 35°39' E 139°46'0 0.0
2017-Feb-15 15:33N 35°39' E 139°46'0 0.0
2017-Feb-15 14:33N 35°39' E 139°46'0 0.0
2017-Feb-15 13:33N 35°39' E 139°46'0 0.0
2017-Feb-15 12:29N 35°39' E 139°46'0 0.0
2017-Feb-15 11:32N 35°39' E 139°46'0 0.0
2017-Feb-15 10:30N 35°39' E 139°46'0 0.0
2017-Feb-15 09:30N 35°39' E 139°46'0 0.0
2017-Feb-15 08:28N 35°39' E 139°46'1 1.1
2017-Feb-15 07:33N 35°38' E 139°46'2 2.0
2017-Feb-15 06:32N 35°36' E 139°47'2 2.5
2017-Feb-15 05:33N 35°34' E 139°49'5 5.1
2017-Feb-15 04:31N 35°39' E 139°46'0 0.0
2017-Feb-15 03:32N 35°39' E 139°46'0 0.0
2017-Feb-15 02:33N 35°39' E 139°46'0 0.0
2017-Feb-15 01:33N 35°39' E 139°46'0 0.0
2017-Feb-15 00:33N 35°39' E 139°46'0 0.0
2017-Feb-14 23:33N 35°39' E 139°46'0 0.0
2017-Feb-14 22:33N 35°39' E 139°46'0 0.0
2017-Feb-14 21:33N 35°39' E 139°46'0 0.0
2017-Feb-14 20:33N 35°39' E 139°46'0 0.0
2017-Feb-14 19:32N 35°39' E 139°46'0 0.0
2017-Feb-14 18:34N 35°39' E 139°46'0 0.0
2017-Feb-14 17:33N 35°39' E 139°46'0 0.0
2017-Feb-14 16:33N 35°39' E 139°46'0 0.0
2017-Feb-14 15:33N 35°39' E 139°46'0 0.0
2017-Feb-14 14:33N 35°39' E 139°46'0 0.0
2017-Feb-14 13:33N 35°39' E 139°46'0 0.0
2017-Feb-14 12:33N 35°39' E 139°46'0 0.0
2017-Feb-14 11:27N 35°39' E 139°46'0 0.0
2017-Feb-14 10:33N 35°39' E 139°46'0 0.0
2017-Feb-14 09:33N 35°39' E 139°46'0 0.1
2017-Feb-14 08:33N 35°39' E 139°46'1 1.1
2017-Feb-14 07:34N 35°38' E 139°46'1 1.1
2017-Feb-14 06:33N 35°39' E 139°46'0 0.0
2017-Feb-14 05:33N 35°39' E 139°46'0 0.0
2017-Feb-14 04:33N 35°39' E 139°46'0 0.0
2017-Feb-14 03:21N 35°39' E 139°46'0 0.0
2017-Feb-14 02:33N 35°39' E 139°46'0 0.0
2017-Feb-14 01:33N 35°39' E 139°46'0 0.0
2017-Feb-14 00:33N 35°39' E 139°46'0 0.0
2017-Feb-13 23:33N 35°39' E 139°46'1 1.4
2017-Feb-13 22:33N 35°37' E 139°46'4 3.6
2017-Feb-13 21:32N 35°34' E 139°48'2 2.0
2017-Feb-13 20:33N 35°36' E 139°47'1 1.3
2017-Feb-13 19:33N 35°37' E 139°46'2 0.9
2017-Feb-13 17:23N 35°39' E 139°46'0 0.0
2017-Feb-13 16:33N 35°39' E 139°46'0 0.0
2017-Feb-13 15:34N 35°39' E 139°46'0 0.0
2017-Feb-13 14:33N 35°39' E 139°46'0 0.0
2017-Feb-13 13:32N 35°39' E 139°46'0 0.0
2017-Feb-13 12:33N 35°39' E 139°46'0 0.0
2017-Feb-13 11:34N 35°39' E 139°46'0 0.0
2017-Feb-13 10:33N 35°39' E 139°46'0 0.0
2017-Feb-13 09:33N 35°39' E 139°46'0 0.0
2017-Feb-13 08:33N 35°39' E 139°46'0 0.0
2017-Feb-13 07:33N 35°39' E 139°46'0 0.0
2017-Feb-13 06:33N 35°39' E 139°46'0 0.0
2017-Feb-13 05:34N 35°39' E 139°46'0 0.0
2017-Feb-13 04:25N 35°39' E 139°46'0 0.0
2017-Feb-13 03:32N 35°39' E 139°46'0 0.0
2017-Feb-13 02:30N 35°39' E 139°46'0 0.0
2017-Feb-13 01:27N 35°39' E 139°46'2 1.8
2017-Feb-13 00:33N 35°37' E 139°46'2 2.1
2017-Feb-12 23:33N 35°35' E 139°47'4 1.7
2017-Feb-12 21:28N 35°39' E 139°46'0 0.0
2017-Feb-12 19:15N 35°39' E 139°46'0 0.0
2017-Feb-12 18:33N 35°39' E 139°46'0 0.0
2017-Feb-12 17:33N 35°39' E 139°46'0 0.0
2017-Feb-12 16:33N 35°39' E 139°46'0 0.0
2017-Feb-12 15:33N 35°39' E 139°46'0 0.0
2017-Feb-12 14:34N 35°39' E 139°46'0 0.0
2017-Feb-12 13:33N 35°39' E 139°46'0 0.0
2017-Feb-12 08:13N 35°39' E 139°46'0 0.0
2017-Feb-12 03:27N 35°39' E 139°46'0 0.0
2017-Feb-11 23:32N 35°39' E 139°46'0 0.0
2017-Feb-11 22:33N 35°39' E 139°46'0 0.0
2017-Feb-11 21:32N 35°39' E 139°46'0 0.0
2017-Feb-11 20:33N 35°39' E 139°46'0 0.0
2017-Feb-11 18:33N 35°39' E 139°46'0 0.0
2017-Feb-11 17:33N 35°39' E 139°46'0 0.0
2017-Feb-11 16:33N 35°39' E 139°46'0 0.0
2017-Feb-11 15:13N 35°39' E 139°46'0 0.0
2017-Feb-11 14:32N 35°39' E 139°46'0 0.0
2017-Feb-11 13:32N 35°39' E 139°46'0 0.0
2017-Feb-11 09:33N 35°39' E 139°46'0 0.0
2017-Feb-11 08:28N 35°39' E 139°46'0 0.0
2017-Feb-10 23:25N 35°39' E 139°46'0 0.0
2017-Feb-10 22:32N 35°39' E 139°46'0 0.0
2017-Feb-10 21:33N 35°39' E 139°46'0 0.0
2017-Feb-10 20:33N 35°39' E 139°46'0 0.0
2017-Feb-10 19:33N 35°39' E 139°46'0 0.0
2017-Feb-10 17:20N 35°39' E 139°46'3 3.3
2017-Feb-10 16:33N 35°36' E 139°46'3 1.9
2017-Feb-10 15:13N 35°39' E 139°46'0 0.0
2017-Feb-10 14:24N 35°39' E 139°46'0 0.0
2017-Feb-10 12:34N 35°39' E 139°46'0 0.0
2017-Feb-10 10:13N 35°39' E 139°46'0 0.0
2017-Feb-10 09:33N 35°39' E 139°46'0 0.0
2017-Feb-10 08:31N 35°39' E 139°46'2 2.4
2017-Feb-10 07:33N 35°37' E 139°46'1 1.0
2017-Feb-10 06:33N 35°36' E 139°47'3 3.1
2017-Feb-10 05:34N 35°39' E 139°46'0 0.0
2017-Feb-10 04:33N 35°39' E 139°46'0 0.0
2017-Feb-10 03:33N 35°39' E 139°46'0 0.0
2017-Feb-10 02:33N 35°39' E 139°46'0 0.0
2017-Feb-10 01:33N 35°39' E 139°46'0 0.0
2017-Feb-10 00:33N 35°39' E 139°46'0 0.0
2017-Feb-09 23:34N 35°39' E 139°46'0 0.0
2017-Feb-09 22:34N 35°39' E 139°46'0 0.0
2017-Feb-09 21:33N 35°39' E 139°46'0 0.0
2017-Feb-09 20:33N 35°39' E 139°46'0 0.0
2017-Feb-09 19:33N 35°39' E 139°46'0 0.0
2017-Feb-09 18:33N 35°39' E 139°46'0 0.0
2017-Feb-09 17:33N 35°39' E 139°46'0 0.0
2017-Feb-09 16:33N 35°39' E 139°46'0 0.0
2017-Feb-09 15:33N 35°39' E 139°46'0 0.0
2017-Feb-09 14:33N 35°39' E 139°46'0 0.0
2017-Feb-09 13:33N 35°39' E 139°46'0 0.0
2017-Feb-09 12:33N 35°39' E 139°46'0 0.0
2017-Feb-09 11:33N 35°39' E 139°46'  

Dump ship's entire track history